createdAt,value
2018-11-02T00:00:15.144Z,12.60
2018-11-02T00:02:44.886Z,12.60
2018-11-02T00:05:12.654Z,12.60
2018-11-02T00:07:41.663Z,12.60
2018-11-02T00:10:09.616Z,12.60
2018-11-02T00:12:37.434Z,12.60
2018-11-02T00:15:05.326Z,12.60
2018-11-02T00:17:32.993Z,12.60
2018-11-02T00:20:00.726Z,12.60
2018-11-02T00:22:28.763Z,12.60
2018-11-02T00:24:56.354Z,12.60
2018-11-02T00:27:24.052Z,12.60
2018-11-02T00:29:52.195Z,12.60
2018-11-02T00:32:19.871Z,12.70
2018-11-02T00:34:48.002Z,12.60
2018-11-02T00:37:15.784Z,12.60
2018-11-02T00:39:43.500Z,12.60
2018-11-02T00:42:11.187Z,12.70
2018-11-02T00:44:38.968Z,12.70
2018-11-02T00:47:12.832Z,12.70
2018-11-02T00:49:40.580Z,12.70
2018-11-02T00:52:08.279Z,12.70
2018-11-02T00:54:36.193Z,12.70
2018-11-02T00:57:04.223Z,12.70
2018-11-02T00:59:32.026Z,12.70
2018-11-02T01:01:59.918Z,12.70
2018-11-02T01:04:27.673Z,12.60
2018-11-02T01:06:55.485Z,12.60
2018-11-02T01:09:23.240Z,12.60
2018-11-02T01:11:51.309Z,12.70
2018-11-02T01:14:19.584Z,12.60
2018-11-02T01:16:47.690Z,12.60
2018-11-02T01:19:15.194Z,12.60
2018-11-02T01:21:43.067Z,12.60
2018-11-02T01:24:10.854Z,12.60
2018-11-02T01:26:38.827Z,12.60
2018-11-02T01:29:06.630Z,12.60
2018-11-02T01:31:34.438Z,12.60
2018-11-02T01:34:02.348Z,12.70
2018-11-02T01:36:30.179Z,12.70
2018-11-02T01:38:58.151Z,12.60
2018-11-02T01:41:25.789Z,12.70
2018-11-02T01:43:53.552Z,12.70
2018-11-02T01:46:21.428Z,12.70
2018-11-02T01:48:49.309Z,12.70
2018-11-02T01:51:17.111Z,12.70
2018-11-02T01:53:44.732Z,12.70
2018-11-02T01:56:12.686Z,12.70
2018-11-02T01:58:40.399Z,12.70
2018-11-02T02:01:08.172Z,12.70
2018-11-02T02:03:36.369Z,12.70
2018-11-02T02:06:04.282Z,12.70
2018-11-02T02:08:33.092Z,12.70
2018-11-02T02:11:00.811Z,12.70
2018-11-02T02:13:28.562Z,12.70
2018-11-02T02:15:56.499Z,12.70
2018-11-02T02:18:24.369Z,12.70
2018-11-02T02:20:52.514Z,12.70
2018-11-02T02:23:20.956Z,12.70
2018-11-02T02:25:49.975Z,12.70
2018-11-02T02:28:18.485Z,12.70
2018-11-02T02:30:46.390Z,12.70
2018-11-02T02:33:14.215Z,12.70
2018-11-02T02:35:42.105Z,12.70
2018-11-02T02:38:09.735Z,12.60
2018-11-02T02:40:37.406Z,12.60
2018-11-02T02:43:05.148Z,12.60
2018-11-02T02:45:33.164Z,12.70
2018-11-02T02:48:01.227Z,12.70
2018-11-02T02:50:29.126Z,12.70
2018-11-02T02:52:56.876Z,12.60
2018-11-02T02:55:24.573Z,12.70
2018-11-02T02:57:52.325Z,12.60
2018-11-02T03:00:20.438Z,12.60
2018-11-02T03:02:48.859Z,12.60
2018-11-02T03:05:16.580Z,12.60
2018-11-02T03:07:45.054Z,12.60
2018-11-02T03:10:13.030Z,12.60
2018-11-02T03:12:40.785Z,12.50
2018-11-02T03:15:08.767Z,12.60
2018-11-02T03:17:36.898Z,12.60
2018-11-02T03:20:06.226Z,12.60
2018-11-02T03:22:34.241Z,12.60
2018-11-02T03:25:02.064Z,12.50
2018-11-02T03:27:29.697Z,12.50
2018-11-02T03:29:57.464Z,12.60
2018-11-02T03:32:25.308Z,12.60
2018-11-02T03:34:52.894Z,12.60
2018-11-02T03:37:20.553Z,12.60
2018-11-02T03:39:48.455Z,12.50
2018-11-02T03:42:16.117Z,12.50
2018-11-02T03:44:43.791Z,12.70
2018-11-02T03:47:11.611Z,12.50
2018-11-02T03:49:39.402Z,12.50
2018-11-02T03:52:07.547Z,12.50
2018-11-02T03:54:35.353Z,12.50
2018-11-02T03:57:03.114Z,12.50
2018-11-02T03:59:30.934Z,12.50
2018-11-02T04:01:58.598Z,12.50
2018-11-02T04:04:26.428Z,12.50
2018-11-02T04:06:54.135Z,12.50
2018-11-02T04:09:21.883Z,12.50
2018-11-02T04:11:49.600Z,12.50
2018-11-02T04:14:17.251Z,12.50
2018-11-02T04:16:45.341Z,12.50
2018-11-02T04:19:13.269Z,12.50
2018-11-02T04:21:47.183Z,12.50
2018-11-02T04:24:14.961Z,12.50
2018-11-02T04:26:43.104Z,12.50
2018-11-02T04:29:12.263Z,12.50
2018-11-02T04:31:40.449Z,12.50
2018-11-02T04:34:08.408Z,12.50
2018-11-02T04:36:36.124Z,12.50
2018-11-02T04:39:06.847Z,12.40
2018-11-02T04:41:34.785Z,12.40
2018-11-02T04:44:02.510Z,12.40
2018-11-02T04:46:30.321Z,12.40
2018-11-02T04:48:58.279Z,12.40
2018-11-02T04:51:25.918Z,12.40
2018-11-02T04:53:54.478Z,12.40
2018-11-02T04:56:22.855Z,12.40
2018-11-02T04:58:50.821Z,12.30
2018-11-02T05:01:18.581Z,12.40
2018-11-02T05:03:46.585Z,12.40
2018-11-02T05:06:14.309Z,12.40
2018-11-02T05:08:42.438Z,12.40
2018-11-02T05:11:10.082Z,12.40
2018-11-02T05:13:38.872Z,12.50
2018-11-02T05:16:06.999Z,12.40
2018-11-02T05:18:34.967Z,12.40
2018-11-02T05:21:02.605Z,12.40
2018-11-02T05:23:30.214Z,12.50
2018-11-02T05:25:58.170Z,12.50
2018-11-02T05:28:26.023Z,12.40
2018-11-02T05:30:53.933Z,12.40
2018-11-02T05:33:21.860Z,12.40
2018-11-02T05:35:50.101Z,12.40
2018-11-02T05:38:18.014Z,12.50
2018-11-02T05:40:45.802Z,12.40
2018-11-02T05:43:15.025Z,12.40
2018-11-02T05:45:43.844Z,12.40
2018-11-02T05:48:11.490Z,12.40
2018-11-02T05:50:39.091Z,12.30
2018-11-02T05:53:06.848Z,12.40
2018-11-02T05:55:34.690Z,12.40
2018-11-02T05:58:02.424Z,12.40
2018-11-02T06:00:30.732Z,12.40
2018-11-02T06:02:58.823Z,12.40
2018-11-02T06:05:26.699Z,12.40
2018-11-02T06:07:54.959Z,12.40
2018-11-02T06:10:23.502Z,12.40
2018-11-02T06:12:51.982Z,12.40
2018-11-02T06:15:20.998Z,12.40
2018-11-02T06:17:50.003Z,12.40
2018-11-02T06:20:17.942Z,12.40
2018-11-02T06:22:45.795Z,12.40
2018-11-02T06:25:13.508Z,12.30
2018-11-02T06:27:41.317Z,12.40
2018-11-02T06:30:09.786Z,12.40
2018-11-02T06:32:37.650Z,12.30
2018-11-02T06:35:06.518Z,12.40
2018-11-02T06:37:34.487Z,12.40
2018-11-02T06:40:03.690Z,12.30
2018-11-02T06:42:31.583Z,12.30
2018-11-02T06:44:59.419Z,12.30
2018-11-02T06:47:28.312Z,12.30
2018-11-02T06:49:56.600Z,12.30
2018-11-02T06:52:24.320Z,12.30
2018-11-02T06:54:52.208Z,12.30
2018-11-02T06:57:20.043Z,12.30
2018-11-02T06:59:48.059Z,12.30
2018-11-02T07:02:15.676Z,12.20
2018-11-02T07:04:44.883Z,12.30
2018-11-02T07:07:12.965Z,12.20
2018-11-02T07:09:41.237Z,12.20
2018-11-02T07:12:09.080Z,12.20
2018-11-02T07:14:37.129Z,12.20
2018-11-02T07:17:05.227Z,12.20
2018-11-02T07:19:33.208Z,12.20
2018-11-02T07:22:01.253Z,12.20
2018-11-02T07:24:29.048Z,12.20
2018-11-02T07:26:56.806Z,12.20
2018-11-02T07:29:24.756Z,12.20
2018-11-02T07:31:52.846Z,12.20
2018-11-02T07:34:20.767Z,12.20
2018-11-02T07:36:48.808Z,12.20
2018-11-02T07:39:16.763Z,12.20
2018-11-02T07:41:44.415Z,12.20
2018-11-02T07:44:13.549Z,12.20
2018-11-02T07:46:41.647Z,12.20
2018-11-02T07:49:09.506Z,12.20
2018-11-02T07:51:37.736Z,12.20
2018-11-02T07:54:06.361Z,12.20
2018-11-02T07:56:35.859Z,12.20
2018-11-02T07:59:03.994Z,12.10
2018-11-02T08:01:33.245Z,12.10
2018-11-02T08:04:01.068Z,12.10
2018-11-02T08:06:28.827Z,12.20
2018-11-02T08:08:56.860Z,12.10
2018-11-02T08:11:26.802Z,12.10
2018-11-02T08:13:54.756Z,12.10
2018-11-02T08:16:22.486Z,12.10
2018-11-02T08:18:50.636Z,12.10
2018-11-02T08:21:18.324Z,12.10
2018-11-02T08:23:46.444Z,12.10
2018-11-02T08:26:14.370Z,12.10
2018-11-02T08:28:42.072Z,12.10
2018-11-02T08:31:09.996Z,12.10
2018-11-02T08:33:37.810Z,12.10
2018-11-02T08:36:06.288Z,12.10
2018-11-02T08:38:34.296Z,12.10
2018-11-02T08:41:02.327Z,12.10
2018-11-02T08:43:30.065Z,12.10
2018-11-02T08:45:58.380Z,12.10
2018-11-02T08:48:26.307Z,12.10
2018-11-02T08:50:54.152Z,12.10
2018-11-02T08:53:25.063Z,12.10
2018-11-02T08:55:52.728Z,12.10
2018-11-02T08:58:20.804Z,12.10
2018-11-02T09:00:48.740Z,12.10
2018-11-02T09:03:16.675Z,12.10
2018-11-02T09:05:44.420Z,12.10
2018-11-02T09:08:12.410Z,12.10
2018-11-02T09:10:40.875Z,12.10
2018-11-02T09:13:09.272Z,12.10
2018-11-02T09:15:37.146Z,12.10
2018-11-02T09:18:06.464Z,12.10
2018-11-02T09:20:34.450Z,12.20
2018-11-02T09:23:02.289Z,12.10
2018-11-02T09:25:30.004Z,12.10
2018-11-02T09:27:57.881Z,12.10
2018-11-02T09:30:25.932Z,12.20
2018-11-02T09:32:53.974Z,12.20
2018-11-02T09:35:21.773Z,12.20
2018-11-02T09:37:50.526Z,11.90
2018-11-02T09:40:18.385Z,12.20
2018-11-02T09:42:46.287Z,12.20
2018-11-02T09:45:14.486Z,12.20
2018-11-02T09:47:42.952Z,12.20
2018-11-02T09:50:11.744Z,12.20
2018-11-02T09:52:39.594Z,12.30
2018-11-02T09:55:09.059Z,12.30
2018-11-02T09:57:36.895Z,12.30
2018-11-02T10:00:05.833Z,12.30
2018-11-02T10:02:33.716Z,12.30
2018-11-02T10:05:01.552Z,12.30
2018-11-02T10:07:29.541Z,12.30
2018-11-02T10:09:57.521Z,12.30
2018-11-02T10:12:25.447Z,12.30
2018-11-02T10:14:53.636Z,12.30
2018-11-02T10:17:21.511Z,12.30
2018-11-02T10:19:49.377Z,12.30
2018-11-02T10:22:17.230Z,12.30
2018-11-02T10:24:45.355Z,12.30
2018-11-02T10:27:13.737Z,12.30
2018-11-02T10:29:41.634Z,12.30
2018-11-02T10:32:09.629Z,12.30
2018-11-02T10:34:37.849Z,12.30
2018-11-02T10:37:06.115Z,12.40
2018-11-02T10:39:34.350Z,12.40
2018-11-02T10:42:04.854Z,12.40
2018-11-02T10:44:34.691Z,12.40
2018-11-02T10:47:03.974Z,12.40
2018-11-02T10:49:32.152Z,12.40
2018-11-02T10:52:00.029Z,12.50
2018-11-02T10:54:28.158Z,12.40
2018-11-02T10:56:56.083Z,12.50
2018-11-02T10:59:23.937Z,12.50
2018-11-02T11:02:13.874Z,12.50
2018-11-02T11:04:41.751Z,12.60
2018-11-02T11:07:09.756Z,12.60
2018-11-02T11:09:37.953Z,12.70
2018-11-02T11:12:06.047Z,12.70
2018-11-02T11:14:34.268Z,12.80
2018-11-02T11:17:02.017Z,12.80
2018-11-02T11:19:30.045Z,12.80
2018-11-02T11:21:57.814Z,12.90
2018-11-02T11:24:25.748Z,12.90
2018-11-02T11:26:53.734Z,12.90
2018-11-02T11:29:21.568Z,12.90
2018-11-02T11:31:49.346Z,12.90
2018-11-02T11:34:17.680Z,12.90
2018-11-02T11:36:45.465Z,12.90
2018-11-02T11:39:13.984Z,12.90
2018-11-02T11:41:41.786Z,12.90
2018-11-02T11:44:10.135Z,12.80
2018-11-02T11:46:37.883Z,12.80
2018-11-02T11:49:06.264Z,13.20
2018-11-02T11:51:33.959Z,12.80
2018-11-02T11:54:01.695Z,12.70
2018-11-02T11:56:29.536Z,12.70
2018-11-02T11:58:57.319Z,12.70
2018-11-02T12:01:26.539Z,12.70
2018-11-02T12:03:54.486Z,12.70
2018-11-02T12:06:22.191Z,12.70
2018-11-02T12:08:50.071Z,12.70
2018-11-02T12:11:17.798Z,12.80
2018-11-02T12:13:45.982Z,12.80
2018-11-02T12:16:13.739Z,12.80
2018-11-02T12:18:41.757Z,12.80
2018-11-02T12:21:09.569Z,12.60
2018-11-02T12:23:37.331Z,12.90
2018-11-02T12:26:05.016Z,13.00
2018-11-02T12:28:33.248Z,12.90
2018-11-02T12:31:00.988Z,12.90
2018-11-02T12:33:29.173Z,12.80
2018-11-02T12:35:57.825Z,12.80
2018-11-02T12:38:25.650Z,12.70
2018-11-02T12:40:53.320Z,12.70
2018-11-02T12:43:21.263Z,12.70
2018-11-02T12:45:48.989Z,12.60
2018-11-02T12:48:16.903Z,12.70
2018-11-02T12:50:44.747Z,12.70
2018-11-02T12:53:12.510Z,12.70
2018-11-02T12:55:40.305Z,12.80
2018-11-02T12:58:08.258Z,12.80
2018-11-02T13:00:36.111Z,12.90
2018-11-02T13:03:04.200Z,12.90
2018-11-02T13:05:31.946Z,13.00
2018-11-02T13:07:59.882Z,13.00
2018-11-02T13:10:28.027Z,13.00
2018-11-02T13:12:55.779Z,13.10
2018-11-02T13:15:24.184Z,13.10
2018-11-02T13:17:52.214Z,13.10
2018-11-02T13:20:20.559Z,13.10
2018-11-02T13:22:49.471Z,13.20
2018-11-02T13:25:18.692Z,13.20
2018-11-02T13:27:47.901Z,13.20
2018-11-02T13:30:15.937Z,13.20
2018-11-02T13:32:43.830Z,13.20
2018-11-02T13:35:16.435Z,13.20
2018-11-02T13:37:44.563Z,13.30
2018-11-02T13:40:13.469Z,13.30
2018-11-02T13:42:41.481Z,13.20
2018-11-02T13:45:10.680Z,13.20
2018-11-02T13:47:39.176Z,13.20
2018-11-02T13:50:07.565Z,13.20
2018-11-02T13:52:35.282Z,13.20
2018-11-02T13:55:03.413Z,13.20
2018-11-02T13:57:31.768Z,13.20
2018-11-02T13:59:59.847Z,13.30
2018-11-02T14:02:27.520Z,13.30
2018-11-02T14:04:55.368Z,13.30
2018-11-02T14:07:23.491Z,13.30
2018-11-02T14:09:51.800Z,13.30
2018-11-02T14:12:19.983Z,13.30
2018-11-02T14:14:47.913Z,13.40
2018-11-02T14:17:15.752Z,13.40
2018-11-02T14:19:43.784Z,13.40
2018-11-02T14:22:11.600Z,13.40
2018-11-02T14:24:39.781Z,13.40
2018-11-02T14:27:08.138Z,13.40
2018-11-02T14:29:35.930Z,13.40
2018-11-02T14:32:04.622Z,13.40
2018-11-02T14:34:32.585Z,13.50
2018-11-02T14:37:00.745Z,13.50
2018-11-02T14:39:28.817Z,13.50
2018-11-02T14:41:56.928Z,13.50
2018-11-02T14:44:24.795Z,13.60
2018-11-02T14:46:53.005Z,13.60
2018-11-02T14:49:20.891Z,13.60
2018-11-02T14:51:49.313Z,13.60
2018-11-02T14:54:17.035Z,13.70
2018-11-02T14:56:45.182Z,13.70
2018-11-02T14:59:13.054Z,13.70
2018-11-02T15:01:40.818Z,13.70
2018-11-02T15:04:09.456Z,13.70
2018-11-02T15:06:37.542Z,13.70
2018-11-02T15:09:08.894Z,13.70
2018-11-02T15:11:36.927Z,13.70
2018-11-02T15:14:05.565Z,13.70
2018-11-02T15:16:33.578Z,13.80
2018-11-02T15:19:01.507Z,13.70
2018-11-02T15:21:29.022Z,13.70
2018-11-02T15:23:56.867Z,13.60
2018-11-02T15:26:24.864Z,13.60
2018-11-02T15:28:52.534Z,13.50
2018-11-02T15:31:20.582Z,13.50
2018-11-02T15:33:48.589Z,13.40
2018-11-02T15:36:17.428Z,13.40
2018-11-02T15:38:45.408Z,13.40
2018-11-02T15:41:13.033Z,13.30
2018-11-02T15:43:40.751Z,13.30
2018-11-02T15:46:08.912Z,13.30
2018-11-02T15:48:37.038Z,13.30
2018-11-02T15:51:04.838Z,13.30
2018-11-02T15:53:32.728Z,13.30
2018-11-02T15:56:00.785Z,13.30
2018-11-02T15:58:28.633Z,13.20
2018-11-02T16:00:56.996Z,13.20
2018-11-02T16:03:25.186Z,13.20
2018-11-02T16:05:53.196Z,13.20
2018-11-02T16:08:21.315Z,13.20
2018-11-02T16:10:49.079Z,13.20
2018-11-02T16:13:16.930Z,13.20
2018-11-02T16:15:44.756Z,13.20
2018-11-02T16:18:12.607Z,13.20
2018-11-02T16:20:40.638Z,13.10
2018-11-02T16:23:08.522Z,13.10
2018-11-02T16:25:36.490Z,13.10
2018-11-02T16:28:04.556Z,13.10
2018-11-02T16:30:32.346Z,13.10
2018-11-02T16:33:00.724Z,13.10
2018-11-02T16:35:28.790Z,13.00
2018-11-02T16:37:56.786Z,13.00
2018-11-02T16:40:24.831Z,13.00
2018-11-02T16:42:52.971Z,13.00
2018-11-02T16:45:20.837Z,13.00
2018-11-02T16:47:48.756Z,13.00
2018-11-02T16:50:16.488Z,12.90
2018-11-02T16:52:44.744Z,12.90
2018-11-02T16:55:12.414Z,12.90
2018-11-02T16:57:40.987Z,12.90
2018-11-02T17:00:15.012Z,12.90
2018-11-02T17:02:43.902Z,12.80
2018-11-02T17:05:11.541Z,12.80
2018-11-02T17:07:40.239Z,12.80
2018-11-02T17:10:09.479Z,12.80
2018-11-02T17:12:38.673Z,12.80
2018-11-02T17:15:07.102Z,12.70
2018-11-02T17:17:35.512Z,12.70
2018-11-02T17:20:04.217Z,12.70
2018-11-02T17:22:32.187Z,12.70
2018-11-02T17:24:59.988Z,12.70
2018-11-02T17:27:27.677Z,12.60
2018-11-02T17:29:55.337Z,12.70
2018-11-02T17:32:23.190Z,12.70
2018-11-02T17:34:50.983Z,12.60
2018-11-02T17:37:19.055Z,12.60
2018-11-02T17:39:47.012Z,12.60
2018-11-02T17:42:14.904Z,12.60
2018-11-02T17:44:42.982Z,12.60
2018-11-02T17:47:10.856Z,12.60
2018-11-02T17:49:38.493Z,12.60
2018-11-02T17:52:06.133Z,12.60
2018-11-02T17:54:33.957Z,12.50
2018-11-02T17:57:01.642Z,12.50
2018-11-02T17:59:29.544Z,12.50
2018-11-02T18:01:57.494Z,12.50
2018-11-02T18:04:25.271Z,12.50
2018-11-02T18:06:53.022Z,12.50
2018-11-02T18:09:20.720Z,12.40
2018-11-02T18:11:49.026Z,12.40
2018-11-02T18:14:16.941Z,12.40
2018-11-02T18:16:44.664Z,12.40
2018-11-02T18:19:12.759Z,12.50
2018-11-02T18:21:40.486Z,12.30
2018-11-02T18:24:08.138Z,12.30
2018-11-02T18:26:35.956Z,12.30
2018-11-02T18:29:03.781Z,12.20
2018-11-02T18:31:31.621Z,12.20
2018-11-02T18:33:59.431Z,12.20
2018-11-02T18:36:27.096Z,12.20
2018-11-02T18:38:54.815Z,12.20
2018-11-02T18:41:22.814Z,12.10
2018-11-02T18:43:51.201Z,12.10
2018-11-02T18:46:19.081Z,12.10
2018-11-02T18:48:46.729Z,12.10
2018-11-02T18:51:14.524Z,12.10
2018-11-02T18:53:42.161Z,12.00
2018-11-02T18:56:10.073Z,12.00
2018-11-02T18:58:38.090Z,12.00
2018-11-02T19:01:05.983Z,12.00
2018-11-02T19:03:34.228Z,12.00
2018-11-02T19:06:05.856Z,12.00
2018-11-02T19:08:33.957Z,11.90
2018-11-02T19:11:02.887Z,11.90
2018-11-02T19:13:30.867Z,11.90
2018-11-02T19:15:58.505Z,11.90
2018-11-02T19:18:26.330Z,11.90
2018-11-02T19:20:54.938Z,11.80
2018-11-02T19:23:23.358Z,11.80
2018-11-02T19:25:51.821Z,11.80
2018-11-02T19:28:20.305Z,11.80
2018-11-02T19:30:48.298Z,11.70
2018-11-02T19:33:16.154Z,11.70
2018-11-02T19:35:45.023Z,11.70
2018-11-02T19:38:13.082Z,11.70
2018-11-02T19:40:40.595Z,11.70
2018-11-02T19:43:08.448Z,11.60
2018-11-02T19:45:36.201Z,11.60
2018-11-02T19:48:04.986Z,11.60
2018-11-02T19:50:33.033Z,11.60
2018-11-02T19:53:00.691Z,11.60
2018-11-02T19:55:28.739Z,11.60
2018-11-02T19:57:56.464Z,11.60
2018-11-02T20:00:24.501Z,11.50
2018-11-02T20:02:52.152Z,11.50
2018-11-02T20:05:20.621Z,11.50
2018-11-02T20:07:48.370Z,11.50
2018-11-02T20:10:17.065Z,11.40
2018-11-02T20:12:45.471Z,11.50
2018-11-02T20:15:13.915Z,11.50
2018-11-02T20:17:41.984Z,11.50
2018-11-02T20:20:11.248Z,11.20
2018-11-02T20:22:39.000Z,11.50
2018-11-02T20:25:08.594Z,11.50
2018-11-02T20:27:36.717Z,11.40
2018-11-02T20:30:10.649Z,11.40
2018-11-02T20:32:38.622Z,11.40
2018-11-02T20:35:07.216Z,11.40
2018-11-02T20:37:35.510Z,11.40
2018-11-02T20:40:04.315Z,11.40
2018-11-02T20:42:32.441Z,11.40
2018-11-02T20:45:00.655Z,11.40
2018-11-02T20:47:33.728Z,11.30
2018-11-02T20:50:01.847Z,11.30
2018-11-02T20:52:29.532Z,11.30
2018-11-02T20:54:57.603Z,11.30
2018-11-02T20:57:25.446Z,11.30
2018-11-02T20:59:53.363Z,11.30
2018-11-02T21:02:21.082Z,11.30
2018-11-02T21:04:49.158Z,11.30
2018-11-02T21:07:16.954Z,11.30
2018-11-02T21:09:45.375Z,11.20
2018-11-02T21:12:13.136Z,11.30
2018-11-02T21:14:41.079Z,11.30
2018-11-02T21:17:09.336Z,11.20
2018-11-02T21:19:37.322Z,11.20
2018-11-02T21:22:08.979Z,11.00
2018-11-02T21:24:37.471Z,11.20
2018-11-02T21:27:06.597Z,11.20
2018-11-02T21:29:34.475Z,11.20
2018-11-02T21:32:02.334Z,11.20
2018-11-02T21:34:30.177Z,11.10
2018-11-02T21:36:57.940Z,11.20
2018-11-02T21:39:25.580Z,11.10
2018-11-02T21:41:53.543Z,11.20
2018-11-02T21:44:21.420Z,11.10
2018-11-02T21:46:49.616Z,11.10
2018-11-02T21:49:17.326Z,11.10
2018-11-02T21:51:44.954Z,11.10
2018-11-02T21:54:12.812Z,11.10
2018-11-02T21:56:40.499Z,11.10
2018-11-02T21:59:08.103Z,11.00
2018-11-02T22:01:36.184Z,11.00
2018-11-02T22:04:04.893Z,11.00
2018-11-02T22:06:32.817Z,11.00
2018-11-02T22:09:00.651Z,10.90
2018-11-02T22:11:29.392Z,10.90
2018-11-02T22:13:56.969Z,10.90
2018-11-02T22:16:24.657Z,10.90
2018-11-02T22:18:52.542Z,10.90
2018-11-02T22:21:20.253Z,10.80
2018-11-02T22:23:48.003Z,10.80
2018-11-02T22:26:15.803Z,10.80
2018-11-02T22:28:43.642Z,10.70
2018-11-02T22:31:11.358Z,10.70
2018-11-02T22:33:39.172Z,10.70
2018-11-02T22:36:06.853Z,10.70
2018-11-02T22:38:34.591Z,10.70
2018-11-02T22:41:02.632Z,10.70
2018-11-02T22:43:30.299Z,10.70
2018-11-02T22:45:57.934Z,10.60
2018-11-02T22:48:25.915Z,10.60
2018-11-02T22:50:55.317Z,10.60
2018-11-02T22:53:23.700Z,10.60
2018-11-02T22:55:51.744Z,10.60
2018-11-02T22:58:19.498Z,10.60
2018-11-02T23:00:52.948Z,10.60
2018-11-02T23:03:20.753Z,10.50
2018-11-02T23:05:48.741Z,10.50
2018-11-02T23:08:16.523Z,10.50
2018-11-02T23:10:44.340Z,10.50
2018-11-02T23:13:12.225Z,10.40
2018-11-02T23:15:40.121Z,10.40
2018-11-02T23:18:07.820Z,10.40
2018-11-02T23:20:35.552Z,10.40
2018-11-02T23:23:03.334Z,10.40
2018-11-02T23:25:31.031Z,10.40
2018-11-02T23:27:58.732Z,10.30
2018-11-02T23:30:26.270Z,10.30
2018-11-02T23:32:53.803Z,10.30
2018-11-02T23:35:21.402Z,10.30
2018-11-02T23:37:49.034Z,10.20
2018-11-02T23:40:16.757Z,10.20
2018-11-02T23:42:44.468Z,10.20
2018-11-02T23:45:12.285Z,10.20
2018-11-02T23:47:44.763Z,10.20
2018-11-02T23:50:12.421Z,10.20
2018-11-02T23:52:40.538Z,10.20
2018-11-02T23:55:08.645Z,10.10
2018-11-02T23:57:36.413Z,10.10
